Time;durP1;ratioP1;P1;durP2;ratioP2;P2;SDS_P1;SDS_P2;PMS_P1;PMS_P2;Temp;Humidity;BMP_temperature;BMP_pressure;BME280_temperature;BME280_humidity;BME280_pressure;Samples;Min_cycle;Max_cycle;Signal;HPM_P1;HPM_P2
2022/03/26 00:00:50;;;;;;;34.45;14.95;;;12.70;58.10;;;;;;5010935;28;20109;-69
2022/03/26 00:03:17;;;;;;;36.95;15.77;;;12.70;57.80;;;;;;5010755;28;20113;-69
2022/03/26 00:05:45;;;;;;;34.72;15.77;;;12.70;57.90;;;;;;5010569;28;20058;-71
2022/03/26 00:08:12;;;;;;;39.80;16.70;;;12.70;57.90;;;;;;5025925;28;20284;-69
2022/03/26 00:10:38;;;;;;;36.08;16.20;;;12.80;58.00;;;;;;5010084;28;20030;-69
2022/03/26 00:13:04;;;;;;;32.25;14.02;;;12.80;58.20;;;;;;5010994;28;20034;-69
2022/03/26 00:15:30;;;;;;;40.22;13.90;;;12.70;58.40;;;;;;5010516;28;20030;-68
2022/03/26 00:17:56;;;;;;;33.78;14.70;;;12.60;58.70;;;;;;5010659;28;20037;-69
2022/03/26 00:20:22;;;;;;;40.92;15.77;;;12.60;58.60;;;;;;5010440;28;20026;-69
2022/03/26 00:22:47;;;;;;;40.53;16.02;;;12.60;59.00;;;;;;5010341;28;20034;-69
2022/03/26 00:25:15;;;;;;;36.35;14.98;;;12.60;59.00;;;;;;5010877;28;20026;-69
2022/03/26 00:27:41;;;;;;;34.03;14.77;;;12.60;59.20;;;;;;5010588;28;20096;-69
2022/03/26 00:30:08;;;;;;;37.60;15.30;;;12.50;59.10;;;;;;5010482;28;20038;-69
2022/03/26 00:32:34;;;;;;;36.35;16.02;;;12.60;59.30;;;;;;5011255;28;20037;-69
2022/03/26 00:35:00;;;;;;;36.05;14.85;;;12.50;59.50;;;;;;5013887;28;20030;-69
2022/03/26 00:37:26;;;;;;;35.88;15.98;;;12.40;59.40;;;;;;5013917;28;20026;-70
2022/03/26 00:39:52;;;;;;;36.30;14.82;;;12.50;59.50;;;;;;5029670;28;20364;-69
2022/03/26 00:42:18;;;;;;;40.50;16.00;;;12.40;59.90;;;;;;5013661;28;20026;-69
2022/03/26 00:44:43;;;;;;;45.15;17.38;;;12.40;60.10;;;;;;5029053;28;20042;-70
2022/03/26 00:47:09;;;;;;;33.85;16.40;;;12.30;60.20;;;;;;5013673;28;20045;-69
2022/03/26 00:49:35;;;;;;;37.10;15.77;;;12.20;60.30;;;;;;5013635;28;20033;-68
2022/03/26 00:52:01;;;;;;;44.50;16.05;;;12.20;60.20;;;;;;5013923;28;20030;-68
2022/03/26 00:54:27;;;;;;;40.25;15.70;;;12.20;60.60;;;;;;5013640;28;20026;-69
2022/03/26 00:56:52;;;;;;;35.75;15.68;;;12.20;60.30;;;;;;5013519;28;20045;-69
2022/03/26 00:59:18;;;;;;;31.23;15.20;;;12.10;60.80;;;;;;5013290;28;20117;-68
2022/03/26 01:01:43;;;;;;;33.20;15.50;;;12.10;60.50;;;;;;5013308;28;20038;-69
2022/03/26 01:04:09;;;;;;;38.33;16.13;;;12.10;60.80;;;;;;5013576;28;20034;-69
2022/03/26 01:06:35;;;;;;;37.05;16.13;;;12.10;61.70;;;;;;5013184;28;20026;-69
2022/03/26 01:09:01;;;;;;;30.08;15.20;;;12.00;61.20;;;;;;5013180;28;20522;-70
2022/03/26 01:11:27;;;;;;;40.17;16.85;;;11.80;61.70;;;;;;5013381;28;20033;-69
2022/03/26 01:13:53;;;;;;;33.85;16.10;;;11.90;61.60;;;;;;5013065;28;20029;-70
2022/03/26 01:16:19;;;;;;;37.25;15.52;;;11.90;61.60;;;;;;5013232;28;20450;-70
2022/03/26 01:18:45;;;;;;;37.38;16.10;;;11.90;61.50;;;;;;5013279;28;20045;-69
2022/03/26 01:21:10;;;;;;;36.65;17.40;;;11.90;61.90;;;;;;5012798;28;20046;-69
2022/03/26 01:23:36;;;;;;;35.20;15.73;;;11.80;62.30;;;;;;5012833;28;20038;-69
2022/03/26 01:26:04;;;;;;;42.45;17.67;;;11.80;62.70;;;;;;5012862;28;20029;-71
2022/03/26 01:28:30;;;;;;;51.70;17.48;;;11.80;62.60;;;;;;5011902;28;20103;-69
2022/03/26 01:30:57;;;;;;;40.53;16.60;;;11.80;62.80;;;;;;5013571;28;20025;-70
2022/03/26 01:33:22;;;;;;;36.83;18.08;;;11.80;63.30;;;;;;5012778;28;20359;-70
2022/03/26 01:35:48;;;;;;;36.67;15.27;;;11.70;63.50;;;;;;5012708;28;20105;-69
2022/03/26 01:38:14;;;;;;;50.38;17.05;;;11.70;63.60;;;;;;5012915;28;20042;-69
2022/03/26 01:40:39;;;;;;;34.45;16.20;;;11.60;63.80;;;;;;5012757;28;20030;-70
2022/03/26 01:43:06;;;;;;;42.75;16.52;;;11.60;64.20;;;;;;5012918;28;20511;-70
2022/03/26 01:45:32;;;;;;;43.97;15.95;;;11.50;64.80;;;;;;5011671;28;20030;-69
2022/03/26 01:47:59;;;;;;;36.30;15.88;;;11.40;65.00;;;;;;5012424;28;20026;-69
2022/03/26 01:50:26;;;;;;;35.15;15.88;;;11.40;65.00;;;;;;5027786;28;20064;-69
2022/03/26 01:52:51;;;;;;;41.58;16.92;;;11.40;65.10;;;;;;5012409;28;20331;-69
2022/03/26 01:55:21;;;;;;;41.60;17.48;;;11.40;65.20;;;;;;5012290;28;20113;-70
2022/03/26 01:57:48;;;;;;;35.85;16.95;;;11.30;65.40;;;;;;5012776;28;20044;-70
2022/03/26 02:00:14;;;;;;;41.10;17.27;;;11.20;65.50;;;;;;5012429;28;20034;-70
2022/03/26 02:02:43;;;;;;;40.03;16.38;;;11.20;65.90;;;;;;5012337;28;20390;-70
2022/03/26 02:05:10;;;;;;;36.83;17.13;;;11.10;66.40;;;;;;5012073;28;20038;-70
2022/03/26 02:07:38;;;;;;;39.33;16.83;;;11.10;66.50;;;;;;5012426;28;20036;-70
2022/03/26 02:10:06;;;;;;;46.33;17.80;;;11.10;66.90;;;;;;5011520;28;20030;-71
2022/03/26 02:12:31;;;;;;;39.63;17.33;;;11.10;66.80;;;;;;5012132;28;20033;-69
2022/03/26 02:14:58;;;;;;;38.15;17.48;;;11.20;66.10;;;;;;5012066;28;20336;-70
2022/03/26 02:17:24;;;;;;;45.15;18.48;;;11.10;66.40;;;;;;5012044;28;20088;-69
2022/03/26 02:19:54;;;;;;;36.53;18.02;;;11.10;67.00;;;;;;5011993;28;20034;-70
2022/03/26 02:22:20;;;;;;;49.80;17.67;;;11.00;67.10;;;;;;5027149;28;20111;-71
2022/03/26 02:24:47;;;;;;;49.72;18.58;;;11.10;66.80;;;;;;5012312;28;20026;-69
2022/03/26 02:27:12;;;;;;;45.75;19.90;;;11.10;67.10;;;;;;5011967;28;20045;-70
2022/03/26 02:29:38;;;;;;;46.65;19.20;;;10.90;67.50;;;;;;5011922;28;20030;-69
2022/03/26 02:32:05;;;;;;;47.92;19.50;;;10.80;68.40;;;;;;5011849;28;20041;-69
2022/03/26 02:34:30;;;;;;;45.72;21.15;;;10.80;68.50;;;;;;5011842;28;20029;-69
2022/03/26 02:36:57;;;;;;;46.88;21.25;;;10.90;68.40;;;;;;5012111;28;20036;-69
2022/03/26 02:39:23;;;;;;;46.35;21.58;;;10.90;68.40;;;;;;5012061;28;20042;-68
2022/03/26 02:41:48;;;;;;;48.05;22.20;;;10.90;68.00;;;;;;5011697;28;20490;-69
2022/03/26 02:44:14;;;;;;;53.72;23.00;;;10.90;68.60;;;;;;5011581;28;20053;-69
2022/03/26 02:46:39;;;;;;;60.22;24.52;;;10.80;69.00;;;;;;5011556;28;20099;-69
2022/03/26 02:49:05;;;;;;;61.88;24.65;;;10.90;68.80;;;;;;5011982;28;20032;-70
2022/03/26 02:51:31;;;;;;;54.72;24.38;;;10.90;68.90;;;;;;5011615;28;20418;-68
2022/03/26 02:53:57;;;;;;;63.25;24.45;;;10.80;69.60;;;;;;5011457;28;20033;-69
2022/03/26 02:56:22;;;;;;;61.30;23.52;;;10.70;69.90;;;;;;5010541;28;20033;-69
2022/03/26 02:58:48;;;;;;;64.70;25.85;;;10.80;69.50;;;;;;5010404;28;20034;-69
2022/03/26 03:01:14;;;;;;;63.15;25.27;;;10.70;69.50;;;;;;5011350;28;20091;-68
2022/03/26 03:03:40;;;;;;;68.05;27.73;;;10.70;69.90;;;;;;5010485;28;20022;-70
2022/03/26 03:06:06;;;;;;;64.05;26.80;;;10.70;70.10;;;;;;5011496;28;20029;-69
2022/03/26 03:08:33;;;;;;;69.63;29.58;;;10.60;70.20;;;;;;5011231;28;20045;-70
2022/03/26 03:10:59;;;;;;;66.35;28.90;;;10.60;70.20;;;;;;5011419;28;20160;-69
2022/03/26 03:13:25;;;;;;;73.22;30.35;;;10.60;70.50;;;;;;5011210;28;20029;-70
2022/03/26 03:15:52;;;;;;;80.47;31.05;;;10.40;71.70;;;;;;5010428;28;20418;-69
2022/03/26 03:18:18;;;;;;;82.68;33.78;;;10.40;71.50;;;;;;5011157;28;20041;-69
2022/03/26 03:20:44;;;;;;;80.78;31.52;;;10.40;71.50;;;;;;5010810;28;20092;-70
2022/03/26 03:23:10;;;;;;;78.50;32.33;;;10.40;71.50;;;;;;5010961;28;20092;-69
2022/03/26 03:25:35;;;;;;;74.50;33.15;;;10.30;72.10;;;;;;5010922;28;20042;-68
2022/03/26 03:28:01;;;;;;;79.80;32.40;;;10.40;71.90;;;;;;5011657;28;20060;-68
2022/03/26 03:30:27;;;;;;;69.07;29.83;;;10.50;71.80;;;;;;5011025;28;20488;-68
2022/03/26 03:32:53;;;;;;;75.47;32.65;;;10.50;71.40;;;;;;5011043;28;20076;-69
2022/03/26 03:35:19;;;;;;;72.28;29.92;;;10.50;71.50;;;;;;5011127;28;20125;-69
2022/03/26 03:37:44;;;;;;;69.20;30.10;;;10.50;71.40;;;;;;5010940;28;20531;-68
2022/03/26 03:40:11;;;;;;;66.20;29.10;;;10.50;71.30;;;;;;5011239;28;20049;-68
2022/03/26 03:42:37;;;;;;;71.30;28.70;;;10.50;71.20;;;;;;5026316;28;20041;-69
2022/03/26 03:45:05;;;;;;;67.65;27.65;;;10.50;71.50;;;;;;5010810;28;20045;-69
2022/03/26 03:47:31;;;;;;;;;;;10.40;71.00;;;;;;5011316;28;20137;-70
2022/03/26 03:49:56;;;;;;;66.65;28.25;;;10.40;71.40;;;;;;5010827;28;19917;-68
2022/03/26 03:52:22;;;;;;;76.88;28.83;;;10.40;71.10;;;;;;5010693;28;20467;-68
2022/03/26 03:54:47;;;;;;;71.85;27.80;;;10.40;71.00;;;;;;5011085;28;20096;-69
2022/03/26 03:57:13;;;;;;;65.68;24.77;;;10.30;71.20;;;;;;5026011;28;20038;-70
2022/03/26 03:59:41;;;;;;;65.43;25.15;;;10.20;71.70;;;;;;5010553;28;20038;-69
2022/03/26 04:02:09;;;;;;;62.78;25.88;;;10.30;71.50;;;;;;5011026;28;20053;-69
2022/03/26 04:04:36;;;;;;;55.60;24.73;;;10.30;71.50;;;;;;5026007;28;20048;-69
2022/03/26 04:07:02;;;;;;;62.28;24.20;;;10.30;71.10;;;;;;5011091;28;20025;-69
2022/03/26 04:09:28;;;;;;;55.88;23.90;;;10.30;71.20;;;;;;5014367;28;20100;-69
2022/03/26 04:11:53;;;;;;;56.67;23.98;;;10.10;72.30;;;;;;5029679;28;20427;-69
2022/03/26 04:14:19;;;;;;;56.10;24.25;;;10.10;71.70;;;;;;5013351;28;20033;-69
2022/03/26 04:16:44;;;;;;;58.38;22.98;;;10.10;71.80;;;;;;5014363;28;20022;-68
2022/03/26 04:19:11;;;;;;;50.47;21.23;;;10.10;72.00;;;;;;5014513;28;20076;-70
2022/03/26 04:21:36;;;;;;;59.47;24.25;;;10.10;72.10;;;;;;5014035;28;20101;-69
2022/03/26 04:24:02;;;;;;;58.30;23.63;;;10.10;71.80;;;;;;5014101;28;20473;-69
2022/03/26 04:26:27;;;;;;;58.70;24.23;;;10.10;71.70;;;;;;5014190;28;20498;-68
2022/03/26 04:28:53;;;;;;;56.08;23.25;;;10.10;72.10;;;;;;5014015;28;20050;-67
2022/03/26 04:31:18;;;;;;;58.85;24.77;;;10.10;72.00;;;;;;5014257;28;20065;-68
2022/03/26 04:33:44;;;;;;;54.55;23.20;;;10.10;71.90;;;;;;5014571;28;20026;-68
2022/03/26 04:36:09;;;;;;;61.25;23.90;;;9.90;73.70;;;;;;5014108;28;20363;-68
2022/03/26 04:38:36;;;;;;;56.60;23.35;;;9.90;73.70;;;;;;5013891;28;20022;-68
2022/03/26 04:41:02;;;;;;;61.78;24.85;;;9.90;73.90;;;;;;5029288;28;20026;-68
2022/03/26 04:43:27;;;;;;;58.45;25.50;;;9.80;74.40;;;;;;5013614;28;20080;-69
2022/03/26 04:45:53;;;;;;;62.13;25.08;;;9.90;74.70;;;;;;5014027;28;20041;-69
2022/03/26 04:48:18;;;;;;;57.47;25.13;;;9.90;74.10;;;;;;5013577;28;20026;-68
2022/03/26 04:50:44;;;;;;;67.45;25.30;;;9.80;74.50;;;;;;5014110;28;20049;-68
2022/03/26 04:53:09;;;;;;;64.43;25.63;;;9.90;74.10;;;;;;5012558;28;20443;-68
2022/03/26 04:55:35;;;;;;;59.58;25.70;;;10.00;72.40;;;;;;5013579;28;20076;-69
2022/03/26 04:58:01;;;;;;;61.88;25.05;;;10.10;72.00;;;;;;5013934;28;20052;-70
2022/03/26 05:00:27;;;;;;;63.78;26.58;;;10.10;72.10;;;;;;5013490;28;20069;-70
2022/03/26 05:02:52;;;;;;;64.80;27.75;;;10.10;72.50;;;;;;5013425;28;20022;-70
2022/03/26 05:05:18;;;;;;;67.32;26.42;;;10.10;72.30;;;;;;5013253;28;20065;-70
2022/03/26 05:07:46;;;;;;;60.40;26.55;;;10.10;72.30;;;;;;5013421;28;20480;-69
2022/03/26 05:10:32;;;;;;;69.88;27.63;;;10.10;72.10;;;;;;5013738;28;20503;-68
2022/03/26 05:12:58;;;;;;;78.72;27.13;;;10.10;72.20;;;;;;5013021;28;20068;-70
2022/03/26 05:15:27;;;;;;;66.47;26.95;;;10.00;72.60;;;;;;5013369;28;20052;-68
2022/03/26 05:17:53;;;;;;;64.20;26.58;;;10.10;72.70;;;;;;5013110;28;20117;-68
2022/03/26 05:20:20;;;;;;;62.38;26.63;;;10.00;72.50;;;;;;5027330;28;20131;-69
2022/03/26 05:22:47;;;;;;;69.63;27.33;;;10.00;72.60;;;;;;5012938;28;20042;-69
2022/03/26 05:25:15;;;;;;;60.45;26.92;;;10.00;72.70;;;;;;5013226;28;20026;-67
2022/03/26 05:27:49;;;;;;;63.53;27.38;;;10.00;72.60;;;;;;5012362;28;20022;-69
2022/03/26 05:30:16;;;;;;;67.90;28.60;;;10.00;72.70;;;;;;5013012;28;20482;-69
2022/03/26 05:32:42;;;;;;;61.97;25.58;;;10.00;72.80;;;;;;5012802;28;20034;-70
2022/03/26 05:35:13;;;;;;;60.50;25.95;;;10.00;73.00;;;;;;5012805;28;20041;-70
2022/03/26 05:37:40;;;;;;;63.53;26.52;;;9.90;74.20;;;;;;5012733;28;20695;-69
2022/03/26 05:40:07;;;;;;;58.08;26.58;;;9.90;74.10;;;;;;5012945;28;20045;-69
2022/03/26 05:42:35;;;;;;;59.65;26.83;;;10.00;72.70;;;;;;5012732;28;20507;-69
2022/03/26 05:45:02;;;;;;;64.97;27.02;;;9.90;74.60;;;;;;5012719;28;20464;-69
2022/03/26 05:47:28;;;;;;;66.68;28.55;;;10.00;73.30;;;;;;5012496;28;20030;-69
2022/03/26 05:49:54;;;;;;;72.93;27.20;;;9.90;74.70;;;;;;5012822;28;20101;-68
2022/03/26 05:52:19;;;;;;;71.43;27.75;;;9.90;74.50;;;;;;5012460;28;20547;-69
2022/03/26 05:54:45;;;;;;;67.32;28.63;;;10.00;73.40;;;;;;5012909;28;20043;-69
2022/03/26 05:57:10;;;;;;;78.10;29.45;;;10.00;73.80;;;;;;5011348;28;20137;-68
2022/03/26 05:59:36;;;;;;;60.42;29.25;;;10.00;73.50;;;;;;5012451;28;20030;-69
2022/03/26 06:02:02;;;;;;;63.65;27.27;;;9.90;75.00;;;;;;5009294;28;20363;-69
2022/03/26 06:04:28;;;;;;;65.72;28.10;;;10.00;74.00;;;;;;5012316;28;20040;-68
2022/03/26 06:06:54;;;;;;;65.65;30.50;;;9.90;75.40;;;;;;5012990;28;20323;-68
2022/03/26 06:09:20;;;;;;;72.07;29.17;;;10.00;74.20;;;;;;5012510;28;20033;-69
2022/03/26 06:11:45;;;;;;;72.70;30.80;;;10.00;74.40;;;;;;5012368;28;20530;-68
2022/03/26 06:14:11;;;;;;;65.65;26.48;;;10.00;74.30;;;;;;5012472;28;20452;-69
2022/03/26 06:16:36;;;;;;;75.65;29.95;;;9.90;75.50;;;;;;5012158;28;20112;-67
2022/03/26 06:19:02;;;;;;;72.10;29.67;;;9.90;75.60;;;;;;5012770;28;20030;-70
2022/03/26 06:21:29;;;;;;;78.28;31.52;;;9.80;75.90;;;;;;5012053;28;20104;-69
2022/03/26 06:23:58;;;;;;;77.18;32.05;;;9.70;76.10;;;;;;5012029;28;20046;-70
2022/03/26 06:26:23;;;;;;;76.75;31.45;;;9.80;76.50;;;;;;5012362;28;20045;-70
2022/03/26 06:28:50;;;;;;;75.32;32.50;;;9.90;76.40;;;;;;5012088;28;20452;-69
2022/03/26 06:31:15;;;;;;;74.30;32.33;;;10.00;74.90;;;;;;5010508;28;20018;-70
2022/03/26 06:33:41;;;;;;;76.10;32.35;;;10.10;75.30;;;;;;5012558;28;20083;-69
2022/03/26 06:36:07;;;;;;;80.60;33.92;;;10.00;75.60;;;;;;5011936;28;20045;-69
2022/03/26 06:38:38;;;;;;;78.63;33.33;;;10.00;75.10;;;;;;5011728;28;20030;-69
2022/03/26 06:41:09;;;;;;;79.57;32.90;;;10.00;75.00;;;;;;5011564;28;20053;-67
2022/03/26 06:43:36;;;;;;;82.40;34.13;;;10.00;75.10;;;;;;5011480;28;20038;-67
2022/03/26 06:46:04;;;;;;;80.50;32.78;;;10.10;75.00;;;;;;5012420;28;20019;-67
2022/03/26 06:48:31;;;;;;;82.78;33.65;;;10.00;75.30;;;;;;5008750;28;20487;-68
2022/03/26 06:50:58;;;;;;;87.95;35.88;;;10.10;75.00;;;;;;5011408;28;20030;-68
2022/03/26 06:53:24;;;;;;;86.95;35.40;;;10.30;74.90;;;;;;5011930;28;20091;-68
2022/03/26 06:55:50;;;;;;;79.63;34.25;;;10.40;74.60;;;;;;5011895;28;20113;-68
2022/03/26 06:58:15;;;;;;;79.35;34.28;;;10.40;74.40;;;;;;5010730;28;20037;-67
2022/03/26 07:00:41;;;;;;;87.50;34.33;;;10.50;74.10;;;;;;5011915;28;20026;-68
2022/03/26 07:03:06;;;;;;;88.80;34.85;;;10.50;73.60;;;;;;5011370;28;20026;-69
2022/03/26 07:05:32;;;;;;;86.13;34.45;;;10.50;74.20;;;;;;5011513;28;20121;-69
2022/03/26 07:07:57;;;;;;;85.20;35.42;;;10.40;74.60;;;;;;5011505;28;20639;-70
2022/03/26 07:10:23;;;;;;;85.03;34.65;;;10.50;74.60;;;;;;5011490;28;20033;-71
2022/03/26 07:12:49;;;;;;;79.72;34.67;;;10.60;74.40;;;;;;5011902;28;20535;-70
2022/03/26 07:15:15;;;;;;;77.78;33.58;;;10.60;74.30;;;;;;5011448;28;20038;-69
2022/03/26 07:17:43;;;;;;;86.88;36.10;;;10.70;74.60;;;;;;5011333;28;20036;-70
2022/03/26 07:20:11;;;;;;;91.18;34.33;;;10.80;73.90;;;;;;5011110;28;20088;-69
2022/03/26 07:22:36;;;;;;;84.20;36.53;;;10.90;73.50;;;;;;5011159;28;20104;-70
2022/03/26 07:25:04;;;;;;;83.15;35.28;;;10.90;73.40;;;;;;5011669;28;20375;-67
2022/03/26 07:27:34;;;;;;;80.93;34.38;;;11.00;73.10;;;;;;5010543;28;20029;-69
2022/03/26 07:30:00;;;;;;;89.85;36.00;;;11.00;73.10;;;;;;5011211;28;20096;-67
2022/03/26 07:32:26;;;;;;;84.97;36.08;;;11.00;72.80;;;;;;5011235;28;20403;-68
2022/03/26 07:34:52;;;;;;;78.22;33.05;;;11.10;73.00;;;;;;5011389;28;20022;-68
2022/03/26 07:37:18;;;;;;;78.95;33.53;;;11.10;72.70;;;;;;5011295;28;20088;-68
2022/03/26 07:39:44;;;;;;;72.35;31.50;;;11.20;72.50;;;;;;5011627;28;20026;-68
2022/03/26 07:42:09;;;;;;;78.35;32.10;;;11.20;73.80;;;;;;5011118;28;20034;-67
2022/03/26 07:44:35;;;;;;;74.38;31.40;;;11.40;72.80;;;;;;5013819;28;20427;-68
2022/03/26 07:47:01;;;;;;;78.97;32.55;;;11.40;72.80;;;;;;5014069;28;20109;-67
2022/03/26 07:49:26;;;;;;;75.72;32.00;;;11.40;72.10;;;;;;5014704;28;20084;-68
2022/03/26 07:51:52;;;;;;;75.03;31.52;;;11.60;72.30;;;;;;5015443;28;20026;-70
2022/03/26 07:54:17;;;;;;;73.53;31.52;;;11.70;71.40;;;;;;5015050;28;20117;-69
2022/03/26 07:56:43;;;;;;;76.57;31.50;;;11.80;71.00;;;;;;5014649;28;20049;-69
2022/03/26 07:59:09;;;;;;;67.53;29.20;;;11.80;70.70;;;;;;5014613;28;20044;-69
2022/03/26 08:01:34;;;;;;;80.68;30.92;;;12.00;70.40;;;;;;5014440;28;20451;-70
2022/03/26 08:04:00;;;;;;;69.68;30.42;;;12.10;70.20;;;;;;5014690;28;20026;-69
2022/03/26 08:06:25;;;;;;;73.30;29.08;;;12.20;69.90;;;;;;5014281;28;20022;-69
2022/03/26 08:08:51;;;;;;;66.40;28.40;;;12.20;70.10;;;;;;5014219;28;20084;-69
2022/03/26 08:11:17;;;;;;;72.75;28.52;;;12.30;70.00;;;;;;5014335;28;20026;-68
2022/03/26 08:13:42;;;;;;;65.53;27.38;;;12.40;69.70;;;;;;5014196;28;20030;-69
2022/03/26 08:16:08;;;;;;;67.13;28.27;;;12.50;70.00;;;;;;5014681;28;20367;-70
2022/03/26 08:18:35;;;;;;;68.57;28.00;;;12.60;68.70;;;;;;5014202;28;20115;-71
2022/03/26 08:21:01;;;;;;;65.00;27.33;;;12.70;68.30;;;;;;5013946;28;20057;-69
2022/03/26 08:23:27;;;;;;;61.70;27.65;;;12.90;68.30;;;;;;5013938;28;20030;-70
2022/03/26 08:28:37;;;;;;;60.83;26.75;;;13.10;68.40;;;;;;5014375;28;20037;-70
2022/03/26 08:31:06;;;;;;;63.22;27.17;;;13.20;68.40;;;;;;5014201;28;20030;-69
2022/03/26 08:33:31;;;;;;;60.72;26.17;;;13.30;67.90;;;;;;5013855;28;20537;-70
2022/03/26 08:35:57;;;;;;;59.72;25.25;;;13.60;68.40;;;;;;5013980;28;20034;-70
2022/03/26 08:38:23;;;;;;;53.75;24.50;;;14.90;66.80;;;;;;5013735;28;20026;-71
2022/03/26 08:40:48;;;;;;;51.65;22.63;;;16.10;63.80;;;;;;5013514;28;20033;-71
2022/03/26 08:43:14;;;;;;;44.55;22.05;;;16.80;61.10;;;;;;5013617;28;20029;-71
2022/03/26 08:45:41;;;;;;;46.55;22.63;;;17.60;59.80;;;;;;5014121;28;20440;-70
2022/03/26 08:48:08;;;;;;;51.75;23.60;;;18.10;58.20;;;;;;5013630;28;20030;-70
2022/03/26 08:50:34;;;;;;;57.67;24.45;;;18.90;56.40;;;;;;5013561;28;20114;-69
2022/03/26 08:52:59;;;;;;;45.92;21.33;;;19.40;54.80;;;;;;5013644;28;20037;-70
2022/03/26 08:55:25;;;;;;;50.67;23.30;;;20.20;53.80;;;;;;5013288;28;20021;-71
2022/03/26 08:57:51;;;;;;;50.17;24.33;;;21.00;51.50;;;;;;5012641;28;20022;-70
2022/03/26 09:00:17;;;;;;;48.92;24.02;;;21.70;50.30;;;;;;5013286;28;20074;-68
2022/03/26 09:02:44;;;;;;;48.67;23.98;;;22.40;48.80;;;;;;5013499;28;20026;-69
2022/03/26 09:05:12;;;;;;;51.97;28.08;;;23.00;46.80;;;;;;5013092;28;20053;-70
2022/03/26 09:07:38;;;;;;;45.13;23.27;;;23.20;45.70;;;;;;5013080;28;20125;-70
2022/03/26 09:10:04;;;;;;;45.03;22.92;;;24.60;45.80;;;;;;5011010;28;20427;-70
2022/03/26 09:12:29;;;;;;;49.75;23.50;;;25.50;43.70;;;;;;5013575;28;20048;-70
2022/03/26 09:14:55;;;;;;;42.85;23.17;;;25.60;41.30;;;;;;5013518;28;20026;-70
2022/03/26 09:17:21;;;;;;;43.70;21.92;;;25.00;41.60;;;;;;5013491;28;20026;-71
2022/03/26 09:19:46;;;;;;;48.42;23.25;;;26.00;41.80;;;;;;5013325;28;20113;-71
2022/03/26 09:22:12;;;;;;;42.17;22.65;;;25.50;42.60;;;;;;5013457;28;20054;-71
2022/03/26 09:24:37;;;;;;;39.17;22.58;;;26.60;40.90;;;;;;5013023;28;20353;-73
2022/03/26 09:27:03;;;;;;;41.13;22.58;;;27.50;39.80;;;;;;5013464;28;20456;-71
2022/03/26 09:29:28;;;;;;;41.80;23.98;;;28.40;39.10;;;;;;5012946;28;20560;-74
2022/03/26 09:31:55;;;;;;;43.35;21.80;;;28.50;37.70;;;;;;5012847;28;20022;-73
2022/03/26 09:34:20;;;;;;;41.15;22.60;;;28.00;37.90;;;;;;5012866;28;20049;-74
2022/03/26 09:36:46;;;;;;;40.33;21.15;;;27.80;38.30;;;;;;5013364;28;20061;-73
2022/03/26 09:39:11;;;;;;;40.10;22.65;;;28.60;37.60;;;;;;5012679;28;20037;-71
2022/03/26 09:41:37;;;;;;;35.55;21.88;;;29.20;37.00;;;;;;5011828;28;20030;-72
2022/03/26 09:44:03;;;;;;;39.80;22.25;;;29.50;36.60;;;;;;5012704;28;20080;-71
2022/03/26 09:46:29;;;;;;;36.78;19.92;;;28.60;36.90;;;;;;5012820;28;20655;-73
2022/03/26 09:48:55;;;;;;;37.78;19.67;;;29.30;36.60;;;;;;5013245;28;20034;-70
2022/03/26 09:51:24;;;;;;;33.45;18.90;;;29.50;36.10;;;;;;5012576;28;20045;-70
2022/03/26 09:53:51;;;;;;;38.20;21.17;;;30.10;35.60;;;;;;5012361;28;20371;-72
2022/03/26 09:56:18;;;;;;;35.72;20.05;;;28.10;36.30;;;;;;5012718;28;20034;-71
2022/03/26 09:58:43;;;;;;;33.83;19.17;;;28.80;36.80;;;;;;5012791;28;20041;-69
2022/03/26 10:01:09;;;;;;;32.35;18.98;;;28.70;35.60;;;;;;5013106;28;20033;-70
2022/03/26 10:03:38;;;;;;;33.90;18.80;;;28.50;35.20;;;;;;5012518;28;20124;-70
2022/03/26 10:06:07;;;;;;;35.08;18.77;;;29.30;34.90;;;;;;5011843;28;20037;-71
2022/03/26 10:08:40;;;;;;;32.75;18.50;;;29.30;34.60;;;;;;5011967;28;20348;-69
2022/03/26 10:11:09;;;;;;;37.40;18.63;;;29.90;35.20;;;;;;5012453;28;20084;-70
2022/03/26 10:13:39;;;;;;;30.33;18.92;;;30.80;34.60;;;;;;5012278;28;20087;-72
2022/03/26 10:16:10;;;;;;;29.23;18.15;;;30.40;33.40;;;;;;5012680;28;20026;-72
2022/03/26 10:18:38;;;;;;;33.80;18.90;;;28.90;35.00;;;;;;5012242;28;20026;-70
2022/03/26 10:21:09;;;;;;;28.90;17.15;;;29.60;35.30;;;;;;5012013;28;20472;-71
2022/03/26 10:23:34;;;;;;;34.00;19.63;;;30.20;35.00;;;;;;5011894;28;20118;-72
2022/03/26 10:26:11;;;;;;;29.75;18.77;;;29.90;33.40;;;;;;5011973;28;20442;-69
2022/03/26 10:28:41;;;;;;;34.60;19.90;;;28.80;35.10;;;;;;5011858;28;20452;-72
2022/03/26 10:34:14;;;;;;;;;;;30.20;34.50;;;;;;5012231;28;20045;-71
2022/03/26 10:36:45;;;;;;;30.23;17.10;;;30.90;33.90;;;;;;5011621;28;19913;-72
2022/03/26 10:39:16;;;;;;;26.67;16.33;;;30.00;33.40;;;;;;5011309;28;20034;-72
2022/03/26 10:41:42;;;;;;;27.63;15.75;;;30.80;33.80;;;;;;5011393;28;20494;-72
2022/03/26 10:44:13;;;;;;;25.58;15.20;;;31.60;33.00;;;;;;5011446;28;20038;-71
2022/03/26 10:46:55;;;;;;;28.40;15.60;;;31.60;32.70;;;;;;5011615;28;20466;-71
2022/03/26 10:49:32;;;;;;;22.35;14.63;;;31.60;32.60;;;;;;5010174;28;20028;-70
2022/03/26 10:52:05;;;;;;;32.63;15.57;;;31.30;32.60;;;;;;5011800;28;20115;-70
2022/03/26 10:54:32;;;;;;;23.85;14.63;;;31.40;32.50;;;;;;5011217;28;20737;-71
2022/03/26 10:57:00;;;;;;;22.27;14.52;;;31.20;32.20;;;;;;5011556;28;20037;-70
2022/03/26 10:59:29;;;;;;;29.48;14.70;;;30.30;32.60;;;;;;5011509;28;20030;-71
2022/03/26 11:01:55;;;;;;;27.52;14.75;;;30.20;33.70;;;;;;5011258;28;20076;-70
2022/03/26 11:04:21;;;;;;;25.70;15.20;;;30.70;33.30;;;;;;5011047;28;20034;-73
2022/03/26 11:06:48;;;;;;;26.45;15.70;;;31.10;32.90;;;;;;5011441;28;20040;-70
2022/03/26 11:09:15;;;;;;;25.53;14.33;;;30.70;33.00;;;;;;5011153;28;20029;-70
2022/03/26 11:11:43;;;;;;;26.02;13.00;;;28.20;33.20;;;;;;5010920;28;20061;-69
2022/03/26 11:14:17;;;;;;;22.60;14.50;;;28.70;34.50;;;;;;5010996;28;20022;-68
2022/03/26 11:17:07;;;;;;;24.08;13.73;;;28.70;34.90;;;;;;5010837;28;20057;-69
2022/03/26 11:19:56;;;;;;;24.05;13.75;;;29.20;34.50;;;;;;5010891;28;20091;-69
2022/03/26 11:22:47;;;;;;;27.02;14.85;;;30.20;33.20;;;;;;5010698;28;20069;-72
2022/03/26 11:25:29;;;;;;;24.83;15.77;;;30.80;33.10;;;;;;5011173;28;20356;-69
2022/03/26 11:28:15;;;;;;;26.55;16.10;;;30.70;33.20;;;;;;5011232;28;20032;-69
2022/03/26 11:30:51;;;;;;;35.30;17.80;;;28.30;34.60;;;;;;5011262;28;20580;-69
2022/03/26 11:33:19;;;;;;;24.08;14.32;;;29.30;33.90;;;;;;5010973;28;20026;-69
2022/03/26 11:35:55;;;;;;;;;;;28.80;34.80;;;;;;5011267;28;20040;-70
2022/03/26 11:38:23;;;;;;;17.85;11.98;;;27.80;35.30;;;;;;5011031;28;20322;-68
2022/03/26 11:40:55;;;;;;;20.73;11.02;;;28.40;35.40;;;;;;5009458;28;20106;-68
2022/03/26 11:43:58;;;;;;;23.67;11.65;;;28.60;34.70;;;;;;5010492;28;20075;-68
2022/03/26 11:52:29;;;;;;;21.85;12.75;;;26.00;36.80;;;;;;5010752;28;20394;-71
2022/03/26 11:55:25;;;;;;;22.48;13.45;;;25.60;37.20;;;;;;5010903;28;20045;-70
2022/03/26 11:58:20;;;;;;;21.95;12.18;;;25.20;38.30;;;;;;5010660;28;20062;-71
2022/03/26 12:01:20;;;;;;;21.00;10.80;;;24.90;38.40;;;;;;5011599;28;20472;-69
2022/03/26 12:03:48;;;;;;;25.58;13.00;;;24.40;38.30;;;;;;4989712;28;20046;-68
2022/03/26 12:06:37;;;;;;;22.92;12.65;;;24.10;38.60;;;;;;4990688;28;20108;-68
2022/03/26 12:09:03;;;;;;;23.35;12.35;;;23.90;39.20;;;;;;4989603;28;20097;-69
2022/03/26 12:11:33;;;;;;;22.58;13.27;;;23.40;39.60;;;;;;4990938;28;20038;-69
2022/03/26 12:14:06;;;;;;;26.52;13.05;;;23.60;40.00;;;;;;4990956;28;20042;-69
2022/03/26 12:16:49;;;;;;;22.63;13.45;;;23.30;40.70;;;;;;4989712;28;20037;-68
2022/03/26 12:19:41;;;;;;;26.23;13.45;;;23.20;41.30;;;;;;4990760;28;20113;-68
2022/03/26 12:22:26;;;;;;;24.10;13.13;;;23.10;41.60;;;;;;4990793;28;20113;-69
2022/03/26 12:24:54;;;;;;;24.00;13.60;;;22.90;41.50;;;;;;5010634;28;20046;-68
2022/03/26 12:27:20;;;;;;;28.75;14.50;;;23.10;41.80;;;;;;5010239;28;20029;-68
2022/03/26 12:29:46;;;;;;;26.23;13.98;;;22.90;42.00;;;;;;5012595;28;20112;-67
2022/03/26 12:32:13;;;;;;;25.48;13.10;;;22.10;43.20;;;;;;5013600;28;20026;-68
2022/03/26 12:34:55;;;;;;;17.65;10.43;;;22.10;43.50;;;;;;5013577;28;20339;-68
2022/03/26 12:37:22;;;;;;;22.55;11.65;;;22.30;44.40;;;;;;5013570;28;20398;-69
2022/03/26 12:39:48;;;;;;;25.33;11.93;;;22.20;44.40;;;;;;5013935;28;20029;-68
2022/03/26 12:42:14;;;;;;;22.05;11.73;;;22.10;44.90;;;;;;5013439;28;20041;-68